Time;durP1;ratioP1;P1;durP2;ratioP2;P2;SDS_P1;SDS_P2;PMS_P1;PMS_P2;Temp;Humidity;BMP_temperature;BMP_pressure;BME280_temperature;BME280_humidity;BME280_pressure;Samples;Min_cycle;Max_cycle;Signal;HPM_P1;HPM_P2
2022/02/23 00:00:39;;;;;;;9.43;1.60;;;;;;;;;;4905127;29;20164;-89
2022/02/23 00:03:04;;;;;;;14.50;2.10;;;;;;;;;;4901763;29;20435;-87
2022/02/23 00:05:30;;;;;;;14.57;2.00;;;;;;;;;;4911339;29;20484;-89
2022/02/23 00:07:55;;;;;;;12.88;2.20;;;;;;;;;;4906847;29;20032;-89
2022/02/23 00:10:20;;;;;;;10.45;1.70;;;;;;;;;;4922092;29;20490;-87
2022/02/23 00:12:46;;;;;;;8.40;1.70;;;;;;;;;;4912702;29;20032;-87
2022/02/23 00:15:11;;;;;;;10.07;1.88;;;;;;;;;;4912210;29;20135;-89
2022/02/23 00:17:37;;;;;;;9.38;2.05;;;;;;;;;;4908134;29;20066;-87
2022/02/23 00:20:05;;;;;;;9.93;1.60;;;;;;;;;;4906029;29;20392;-88
2022/02/23 00:22:32;;;;;;;9.65;2.10;;;;;;;;;;4903815;29;20030;-88
2022/02/23 00:24:58;;;;;;;10.77;2.05;;;;;;;;;;4902372;29;20028;-88
2022/02/23 00:27:24;;;;;;;10.88;1.88;;;;;;;;;;4912809;29;20059;-88
2022/02/23 00:29:49;;;;;;;10.68;2.42;;;;;;;;;;4913685;29;20035;-87
2022/02/23 00:32:15;;;;;;;12.98;1.77;;;;;;;;;;4905601;29;20032;-88
2022/02/23 00:34:41;;;;;;;8.52;1.55;;;;;;;;;;4906688;29;20043;-90
2022/02/23 00:37:07;;;;;;;12.13;1.92;;;;;;;;;;4910514;29;20711;-87
2022/02/23 00:39:33;;;;;;;11.48;2.40;;;;;;;;;;4901818;29;20033;-89
2022/02/23 00:41:58;;;;;;;13.73;2.78;;;;;;;;;;4914256;29;20047;-89
2022/02/23 00:44:24;;;;;;;9.50;1.60;;;;;;;;;;4905245;29;20416;-86
2022/02/23 00:46:49;;;;;;;8.75;2.17;;;;;;;;;;4908048;29;20061;-87
2022/02/23 00:49:15;;;;;;;8.50;1.83;;;;;;;;;;4904407;29;20480;-89
2022/02/23 00:51:40;;;;;;;10.73;1.95;;;;;;;;;;4913610;29;20031;-87
2022/02/23 00:54:06;;;;;;;11.18;2.00;;;;;;;;;;4913369;29;20147;-87
2022/02/23 00:56:31;;;;;;;9.00;1.90;;;;;;;;;;4906603;29;21527;-87
2022/02/23 00:58:57;;;;;;;13.02;1.85;;;;;;;;;;4910181;29;20060;-89
2022/02/23 01:01:23;;;;;;;12.75;2.58;;;;;;;;;;4906197;29;20032;-87
2022/02/23 01:03:48;;;;;;;8.80;1.70;;;;;;;;;;4901992;29;20052;-89
2022/02/23 01:06:13;;;;;;;11.20;2.22;;;;;;;;;;4905956;29;20028;-89
2022/02/23 01:08:39;;;;;;;11.02;2.25;;;;;;;;;;4913977;29;20024;-88
2022/02/23 01:11:06;;;;;;;12.13;2.38;;;;;;;;;;4902356;29;20040;-89
2022/02/23 01:13:31;;;;;;;8.90;1.70;;;;;;;;;;4903104;29;20055;-87
2022/02/23 01:15:57;;;;;;;11.98;2.22;;;;;;;;;;4904088;29;21545;-87
2022/02/23 01:18:23;;;;;;;9.93;1.60;;;;;;;;;;4905410;29;20651;-89
2022/02/23 01:20:48;;;;;;;12.35;2.55;;;;;;;;;;4904589;29;20070;-88
2022/02/23 01:23:14;;;;;;;8.82;1.77;;;;;;;;;;4904731;29;20029;-89
2022/02/23 01:25:39;;;;;;;11.07;1.92;;;;;;;;;;4908250;29;20115;-90
2022/02/23 01:28:06;;;;;;;9.98;1.50;;;;;;;;;;4898735;29;20466;-89
2022/02/23 01:30:33;;;;;;;11.75;2.42;;;;;;;;;;4908119;29;20020;-90
2022/02/23 01:32:58;;;;;;;12.70;1.80;;;;;;;;;;4907766;29;20039;-87
2022/02/23 01:35:25;;;;;;;10.73;1.98;;;;;;;;;;4913494;29;20040;-87
2022/02/23 01:37:52;;;;;;;12.77;1.92;;;;;;;;;;4926948;29;20031;-87
2022/02/23 01:40:18;;;;;;;10.85;2.20;;;;;;;;;;4917297;29;20114;-89
2022/02/23 01:42:43;;;;;;;17.00;2.38;;;;;;;;;;4911833;29;20028;-89
2022/02/23 01:45:10;;;;;;;7.68;2.08;;;;;;;;;;4901846;29;20501;-89
2022/02/23 01:47:36;;;;;;;15.05;2.40;;;;;;;;;;4909663;29;20123;-87
2022/02/23 01:50:01;;;;;;;11.23;2.00;;;;;;;;;;4906646;29;20118;-90
2022/02/23 01:52:27;;;;;;;12.10;2.75;;;;;;;;;;4915648;29;20031;-86
2022/02/23 01:54:53;;;;;;;7.78;1.77;;;;;;;;;;4906277;29;20024;-87
2022/02/23 01:57:19;;;;;;;9.65;1.85;;;;;;;;;;4909914;29;20468;-90
2022/02/23 01:59:45;;;;;;;10.25;2.30;;;;;;;;;;4902950;29;20099;-88
2022/02/23 02:02:10;;;;;;;6.72;1.73;;;;;;;;;;4899004;29;20029;-87
2022/02/23 02:04:36;;;;;;;11.55;2.10;;;;;;;;;;4904678;29;20056;-89
2022/02/23 02:07:02;;;;;;;11.40;2.08;;;;;;;;;;4908275;29;20028;-87
2022/02/23 02:09:27;;;;;;;9.07;2.13;;;;;;;;;;4899204;29;20032;-89
2022/02/23 02:11:53;;;;;;;9.68;1.80;;;;;;;;;;4904719;29;20551;-87
2022/02/23 02:14:18;;;;;;;12.40;2.30;;;;;;;;;;4903385;29;20501;-89
2022/02/23 02:16:45;;;;;;;8.18;1.65;;;;;;;;;;4899761;29;20080;-90
2022/02/23 02:19:10;;;;;;;12.05;1.90;;;;;;;;;;4911927;29;20150;-88
2022/02/23 02:22:05;;;;;;;14.40;2.42;;;;;;;;;;4907208;29;20506;-87
2022/02/23 02:24:34;;;;;;;15.13;2.58;;;;;;;;;;4911235;29;20024;-88
2022/02/23 02:27:01;;;;;;;10.60;2.22;;;;;;;;;;4912509;29;20043;-89
2022/02/23 02:29:27;;;;;;;15.60;1.88;;;;;;;;;;4908261;29;20024;-89
2022/02/23 02:31:52;;;;;;;11.18;2.47;;;;;;;;;;4907691;29;20036;-89
2022/02/23 02:34:19;;;;;;;9.15;1.85;;;;;;;;;;4910665;29;20130;-88
2022/02/23 02:36:44;;;;;;;9.10;2.05;;;;;;;;;;4912654;29;20176;-86
2022/02/23 02:39:10;;;;;;;7.70;1.70;;;;;;;;;;4898972;29;20120;-87
2022/02/23 02:41:37;;;;;;;7.32;1.55;;;;;;;;;;4910130;29;20044;-87
2022/02/23 02:44:03;;;;;;;9.38;2.00;;;;;;;;;;4913709;29;20020;-89
2022/02/23 02:46:29;;;;;;;9.30;1.80;;;;;;;;;;4908418;29;20070;-87
2022/02/23 02:48:55;;;;;;;10.02;1.90;;;;;;;;;;4905184;29;20080;-87
2022/02/23 02:51:20;;;;;;;11.93;2.25;;;;;;;;;;4907501;29;20024;-87
2022/02/23 02:53:46;;;;;;;7.25;2.22;;;;;;;;;;4912629;29;20036;-87
2022/02/23 02:56:11;;;;;;;10.65;2.05;;;;;;;;;;4907959;29;20033;-88
2022/02/23 02:58:37;;;;;;;8.25;1.77;;;;;;;;;;4915710;29;20048;-87
2022/02/23 03:01:03;;;;;;;9.65;1.73;;;;;;;;;;4911911;29;20024;-87
2022/02/23 03:03:28;;;;;;;11.82;1.60;;;;;;;;;;4901989;29;20032;-89
2022/02/23 03:05:54;;;;;;;7.18;1.67;;;;;;;;;;4906366;29;20035;-89
2022/02/23 03:08:19;;;;;;;10.75;1.77;;;;;;;;;;4910211;29;20713;-87
2022/02/23 03:10:44;;;;;;;8.02;1.63;;;;;;;;;;4906766;29;20066;-89
2022/02/23 03:13:10;;;;;;;10.77;2.20;;;;;;;;;;4898714;29;20374;-87
2022/02/23 03:15:36;;;;;;;6.90;1.55;;;;;;;;;;4919696;29;20032;-86
2022/02/23 03:18:03;;;;;;;12.00;2.13;;;;;;;;;;4905154;29;20025;-90
2022/02/23 03:20:30;;;;;;;7.05;2.20;;;;;;;;;;4901304;29;20032;-87
2022/02/23 03:22:56;;;;;;;11.55;1.90;;;;;;;;;;4909728;29;20504;-87
2022/02/23 03:25:21;;;;;;;10.75;1.67;;;;;;;;;;4906128;29;20091;-87
2022/02/23 03:27:46;;;;;;;11.85;1.73;;;;;;;;;;4910281;29;20028;-87
2022/02/23 03:30:13;;;;;;;12.80;2.03;;;;;;;;;;4919464;29;20461;-88
2022/02/23 03:32:38;;;;;;;6.43;1.90;;;;;;;;;;4904320;29;20072;-89
2022/02/23 03:35:05;;;;;;;7.72;1.70;;;;;;;;;;4903502;29;20067;-87
2022/02/23 03:37:31;;;;;;;14.82;2.00;;;;;;;;;;4905779;29;20033;-89
2022/02/23 03:39:56;;;;;;;10.75;2.10;;;;;;;;;;4905074;29;20507;-89
2022/02/23 03:42:22;;;;;;;11.52;1.95;;;;;;;;;;4907360;29;20118;-89
2022/02/23 03:44:47;;;;;;;14.65;2.05;;;;;;;;;;4908560;29;20044;-89
2022/02/23 03:47:13;;;;;;;12.50;1.92;;;;;;;;;;4906351;29;20192;-88
2022/02/23 03:49:38;;;;;;;12.35;2.20;;;;;;;;;;4904698;29;20119;-87
2022/02/23 03:52:04;;;;;;;12.43;2.20;;;;;;;;;;4903767;29;20095;-89
2022/02/23 03:54:30;;;;;;;8.20;1.90;;;;;;;;;;4905052;29;20036;-87
2022/02/23 03:56:55;;;;;;;11.95;2.42;;;;;;;;;;4908008;29;20046;-89
2022/02/23 03:59:20;;;;;;;11.70;1.92;;;;;;;;;;4909528;29;20749;-87
2022/02/23 04:01:46;;;;;;;9.68;2.30;;;;;;;;;;4922546;29;20072;-89
2022/02/23 04:04:13;;;;;;;11.57;2.55;;;;;;;;;;4904405;29;20115;-87
2022/02/23 04:06:39;;;;;;;8.50;1.70;;;;;;;;;;4906313;29;20047;-90
2022/02/23 04:09:06;;;;;;;11.00;2.05;;;;;;;;;;4904454;29;20032;-89
2022/02/23 04:11:32;;;;;;;9.15;2.00;;;;;;;;;;4903103;29;20495;-88
2022/02/23 04:13:59;;;;;;;8.60;1.98;;;;;;;;;;4912170;29;20033;-87
2022/02/23 04:16:24;;;;;;;11.73;2.17;;;;;;;;;;4917178;29;20532;-87
2022/02/23 04:18:50;;;;;;;11.13;1.90;;;;;;;;;;4910270;29;20106;-90
2022/02/23 04:21:16;;;;;;;6.55;1.50;;;;;;;;;;4911989;29;20062;-87
2022/02/23 04:23:41;;;;;;;9.98;1.80;;;;;;;;;;4914555;29;20024;-89
2022/02/23 04:26:07;;;;;;;13.00;2.60;;;;;;;;;;4911326;29;20056;-87
2022/02/23 04:28:34;;;;;;;9.68;2.05;;;;;;;;;;4921598;29;20068;-89
2022/02/23 04:31:00;;;;;;;10.32;2.45;;;;;;;;;;4901429;29;20119;-89
2022/02/23 04:33:26;;;;;;;9.80;2.20;;;;;;;;;;4910938;29;20033;-90
2022/02/23 04:35:51;;;;;;;10.98;2.08;;;;;;;;;;4915539;29;20024;-89
2022/02/23 04:38:17;;;;;;;12.88;2.13;;;;;;;;;;4903931;29;20029;-89
2022/02/23 04:40:43;;;;;;;13.73;2.08;;;;;;;;;;4914241;29;20024;-87
2022/02/23 04:43:10;;;;;;;11.63;1.92;;;;;;;;;;4901773;29;20020;-89
2022/02/23 04:45:35;;;;;;;8.05;1.75;;;;;;;;;;4918494;29;20048;-89
2022/02/23 04:48:01;;;;;;;9.23;1.88;;;;;;;;;;4917367;29;20067;-89
2022/02/23 04:50:26;;;;;;;8.60;1.75;;;;;;;;;;4917502;29;20392;-87
2022/02/23 04:52:52;;;;;;;12.75;2.35;;;;;;;;;;4916552;29;20464;-87
2022/02/23 04:55:17;;;;;;;8.23;1.92;;;;;;;;;;4918460;29;20048;-87
2022/02/23 04:57:43;;;;;;;11.55;1.90;;;;;;;;;;4910559;29;20023;-89
2022/02/23 05:00:09;;;;;;;11.00;1.90;;;;;;;;;;4908649;29;20032;-89
2022/02/23 05:02:35;;;;;;;7.30;1.70;;;;;;;;;;4906309;29;20388;-87
2022/02/23 05:05:01;;;;;;;5.68;1.42;;;;;;;;;;4910513;29;20081;-89
2022/02/23 05:07:26;;;;;;;11.05;1.92;;;;;;;;;;4911944;29;20031;-89
2022/02/23 05:09:52;;;;;;;8.90;1.60;;;;;;;;;;4910295;29;20058;-90
2022/02/23 05:12:18;;;;;;;11.20;1.80;;;;;;;;;;4911839;29;20028;-87
2022/02/23 05:14:43;;;;;;;12.13;2.85;;;;;;;;;;4906824;29;20024;-87
2022/02/23 05:17:08;;;;;;;8.00;1.58;;;;;;;;;;4910252;29;20146;-89
2022/02/23 05:19:34;;;;;;;11.13;1.88;;;;;;;;;;4913856;29;20028;-87
2022/02/23 05:22:01;;;;;;;5.18;1.52;;;;;;;;;;4909455;29;20039;-87
2022/02/23 05:24:28;;;;;;;8.90;1.65;;;;;;;;;;4906514;29;20015;-87
2022/02/23 05:26:55;;;;;;;9.13;1.85;;;;;;;;;;4905581;29;20489;-89
2022/02/23 05:29:21;;;;;;;7.82;1.55;;;;;;;;;;4904160;29;20036;-89
2022/02/23 05:31:47;;;;;;;11.10;2.70;;;;;;;;;;4910054;29;20047;-88
2022/02/23 05:34:12;;;;;;;9.73;1.75;;;;;;;;;;4909657;29;20133;-88
2022/02/23 05:36:38;;;;;;;7.07;1.50;;;;;;;;;;4917538;29;20067;-89
2022/02/23 05:39:03;;;;;;;11.23;1.70;;;;;;;;;;4917763;29;20031;-89
2022/02/23 05:41:29;;;;;;;6.95;1.70;;;;;;;;;;4905162;29;20127;-86
2022/02/23 05:43:54;;;;;;;9.05;2.28;;;;;;;;;;4907563;29;20024;-88
2022/02/23 05:46:20;;;;;;;7.97;2.00;;;;;;;;;;4905863;29;20560;-88
2022/02/23 05:48:45;;;;;;;9.15;1.95;;;;;;;;;;4911821;29;20031;-89
2022/02/23 05:51:46;;;;;;;9.98;1.95;;;;;;;;;;4908438;29;20028;-89
2022/02/23 05:54:12;;;;;;;8.63;1.77;;;;;;;;;;4875315;29;20084;-87
2022/02/23 05:56:37;;;;;;;12.98;2.10;;;;;;;;;;4921735;29;20025;-87
2022/02/23 05:59:03;;;;;;;12.75;2.22;;;;;;;;;;4906130;29;20486;-88
2022/02/23 06:01:29;;;;;;;8.80;1.90;;;;;;;;;;4903350;29;20095;-89
2022/02/23 06:03:56;;;;;;;12.90;2.30;;;;;;;;;;4908422;29;20032;-86
2022/02/23 06:06:22;;;;;;;8.68;2.40;;;;;;;;;;4903607;29;20028;-89
2022/02/23 06:08:52;;;;;;;10.15;2.28;;;;;;;;;;4906226;29;20032;-89
2022/02/23 06:11:18;;;;;;;7.18;1.73;;;;;;;;;;4901423;29;20079;-88
2022/02/23 06:13:53;;;;;;;6.22;1.83;;;;;;;;;;4906940;29;20481;-89
2022/02/23 06:16:23;;;;;;;8.32;1.60;;;;;;;;;;4920441;29;20469;-89
2022/02/23 06:18:49;;;;;;;13.18;2.03;;;;;;;;;;4900777;29;20391;-89
2022/02/23 06:21:15;;;;;;;12.90;2.35;;;;;;;;;;4916120;29;20473;-86
2022/02/23 06:23:41;;;;;;;9.63;1.95;;;;;;;;;;4920942;29;20183;-88
2022/02/23 06:26:15;;;;;;;9.18;2.00;;;;;;;;;;4913504;29;20036;-89
2022/02/23 06:28:52;;;;;;;10.75;2.65;;;;;;;;;;4901478;29;20108;-87
2022/02/23 06:31:20;;;;;;;9.40;2.55;;;;;;;;;;4909353;29;20488;-86
2022/02/23 06:33:47;;;;;;;7.25;2.20;;;;;;;;;;4911227;29;20385;-87
2022/02/23 06:36:13;;;;;;;8.60;2.60;;;;;;;;;;4912146;29;20024;-87
2022/02/23 06:38:41;;;;;;;7.70;2.05;;;;;;;;;;4904091;29;20481;-89
2022/02/23 06:41:18;;;;;;;10.18;2.38;;;;;;;;;;4912433;29;20032;-88
2022/02/23 06:43:45;;;;;;;6.38;1.67;;;;;;;;;;4913124;29;20043;-87
2022/02/23 06:46:14;;;;;;;13.15;2.53;;;;;;;;;;4905777;29;20049;-88
2022/02/23 06:48:42;;;;;;;7.15;2.10;;;;;;;;;;4907080;29;20036;-87
2022/02/23 06:51:08;;;;;;;11.15;2.53;;;;;;;;;;4912403;29;20404;-87
2022/02/23 06:53:50;;;;;;;8.82;2.17;;;;;;;;;;4903355;29;20043;-87
2022/02/23 06:56:17;;;;;;;12.27;2.20;;;;;;;;;;4907693;29;22440;-88
2022/02/23 06:58:49;;;;;;;12.02;2.60;;;;;;;;;;4901287;29;20457;-89
2022/02/23 07:01:16;;;;;;;4.55;1.80;;;;;;;;;;4910621;29;20028;-86
2022/02/23 07:03:44;;;;;;;16.90;2.80;;;;;;;;;;4912171;29;20032;-87
2022/02/23 07:06:10;;;;;;;10.05;1.90;;;;;;;;;;4911144;29;20044;-88
2022/02/23 07:08:35;;;;;;;11.05;2.78;;;;;;;;;;4909360;29;20034;-86
2022/02/23 07:11:00;;;;;;;9.02;2.53;;;;;;;;;;4913742;29;20058;-86
2022/02/23 07:13:26;;;;;;;11.23;2.45;;;;;;;;;;4921363;29;20040;-89
2022/02/23 07:15:51;;;;;;;10.38;2.38;;;;;;;;;;4916037;29;20034;-87
2022/02/23 07:18:17;;;;;;;10.07;2.53;;;;;;;;;;4906174;29;20029;-86
2022/02/23 07:20:42;;;;;;;13.38;2.78;;;;;;;;;;4911091;29;20473;-90
2022/02/23 07:23:07;;;;;;;11.23;2.70;;;;;;;;;;4905921;29;20743;-88
2022/02/23 07:25:33;;;;;;;11.27;2.65;;;;;;;;;;4911619;29;20031;-85
2022/02/23 07:27:58;;;;;;;11.10;3.00;;;;;;;;;;4905462;29;20087;-87
2022/02/23 07:30:24;;;;;;;10.45;2.70;;;;;;;;;;4913647;29;20048;-90
2022/02/23 07:32:49;;;;;;;13.07;2.42;;;;;;;;;;4921933;29;20028;-88
2022/02/23 07:35:22;;;;;;;9.73;2.33;;;;;;;;;;4908627;29;20076;-90
2022/02/23 07:37:50;;;;;;;;;;;;;;;;;;4903171;29;20083;-89
2022/02/23 07:40:20;;;;;;;9.20;2.35;;;;;;;;;;4908985;29;19958;-90
2022/02/23 07:42:46;;;;;;;10.50;2.70;;;;;;;;;;4915098;29;20032;-89
2022/02/23 07:45:12;;;;;;;10.95;3.05;;;;;;;;;;4909863;29;20144;-89
2022/02/23 07:47:37;;;;;;;11.32;3.10;;;;;;;;;;4917322;29;20030;-88
2022/02/23 07:50:11;;;;;;;11.60;3.33;;;;;;;;;;4912522;29;20028;-87
2022/02/23 07:52:37;;;;;;;12.15;3.60;;;;;;;;;;4919890;29;20032;-87
2022/02/23 07:55:03;;;;;;;15.10;3.70;;;;;;;;;;4902529;29;20036;-88
2022/02/23 07:57:28;;;;;;;18.15;4.07;;;;;;;;;;4909943;29;20028;-90
2022/02/23 07:59:54;;;;;;;15.48;3.92;;;;;;;;;;4914270;29;20143;-90
2022/02/23 08:02:21;;;;;;;14.15;4.35;;;;;;;;;;4904789;29;20966;-87
2022/02/23 08:04:51;;;;;;;15.70;4.85;;;;;;;;;;4914764;29;20028;-87
2022/02/23 08:07:21;;;;;;;10.63;4.70;;;;;;;;;;4908124;29;20057;-89
2022/02/23 08:09:46;;;;;;;9.93;4.30;;;;;;;;;;4923531;29;20040;-85
2022/02/23 08:12:12;;;;;;;16.20;5.15;;;;;;;;;;4923474;29;20100;-86
2022/02/23 08:14:39;;;;;;;11.98;4.78;;;;;;;;;;4917386;29;20109;-89
2022/02/23 08:19:49;;;;;;;18.33;5.70;;;;;;;;;;4905520;29;20066;-87
2022/02/23 08:22:14;;;;;;;12.77;6.22;;;;;;;;;;4911184;29;20116;-86
2022/02/23 08:24:44;;;;;;;15.75;6.15;;;;;;;;;;4899852;29;20119;-89
2022/02/23 08:27:12;;;;;;;15.13;5.82;;;;;;;;;;4909741;29;20037;-89
2022/02/23 08:29:38;;;;;;;17.83;5.88;;;;;;;;;;4906332;29;20075;-86
2022/02/23 08:32:08;;;;;;;21.15;6.88;;;;;;;;;;4917745;29;20028;-88
2022/02/23 08:34:34;;;;;;;19.10;6.05;;;;;;;;;;4928281;29;20028;-87
2022/02/23 08:37:00;;;;;;;16.75;5.97;;;;;;;;;;4906382;29;20544;-89
2022/02/23 08:39:26;;;;;;;16.60;6.28;;;;;;;;;;4912195;29;20123;-89
2022/02/23 08:41:51;;;;;;;18.38;6.10;;;;;;;;;;4912006;29;20047;-87
2022/02/23 08:44:17;;;;;;;16.17;6.60;;;;;;;;;;4910925;29;20032;-89
2022/02/23 08:46:44;;;;;;;17.55;6.95;;;;;;;;;;4914713;29;20066;-87
2022/02/23 08:49:11;;;;;;;16.50;6.90;;;;;;;;;;4908725;29;20705;-89
2022/02/23 08:51:38;;;;;;;15.63;6.80;;;;;;;;;;4911700;29;20082;-87
2022/02/23 08:54:05;;;;;;;17.25;6.30;;;;;;;;;;4921868;29;20028;-86
2022/02/23 08:56:31;;;;;;;19.55;7.30;;;;;;;;;;4908898;29;20032;-88
2022/02/23 08:58:57;;;;;;;16.10;6.65;;;;;;;;;;4924893;29;20024;-86
2022/02/23 09:01:23;;;;;;;18.13;6.93;;;;;;;;;;4922329;29;20499;-87
2022/02/23 09:03:48;;;;;;;16.92;6.78;;;;;;;;;;4922955;29;20031;-87
2022/02/23 09:06:14;;;;;;;17.77;6.63;;;;;;;;;;4917679;29;20627;-87
2022/02/23 09:08:42;;;;;;;15.73;6.90;;;;;;;;;;4909245;29;20028;-87
2022/02/23 09:11:07;;;;;;;20.85;7.00;;;;;;;;;;4911953;29;20074;-86
2022/02/23 09:13:33;;;;;;;13.63;6.97;;;;;;;;;;4918454;29;20028;-87
2022/02/23 09:15:58;;;;;;;20.50;7.57;;;;;;;;;;4924313;29;20027;-87
2022/02/23 09:18:25;;;;;;;15.95;7.38;;;;;;;;;;4919979;29;20442;-88
2022/02/23 09:20:50;;;;;;;15.75;7.45;;;;;;;;;;4907453;29;20029;-86
2022/02/23 09:23:15;;;;;;;19.20;8.05;;;;;;;;;;4906584;29;20080;-89
2022/02/23 09:25:41;;;;;;;15.77;7.38;;;;;;;;;;4907250;29;20046;-87
2022/02/23 09:28:07;;;;;;;16.35;8.10;;;;;;;;;;4912369;29;20027;-88
2022/02/23 09:30:32;;;;;;;14.65;8.73;;;;;;;;;;4908151;29;20032;-88
2022/02/23 09:32:58;;;;;;;15.32;8.25;;;;;;;;;;4918615;29;20047;-90
2022/02/23 09:35:25;;;;;;;15.73;7.60;;;;;;;;;;4916464;29;20068;-86
2022/02/23 09:37:51;;;;;;;18.35;8.02;;;;;;;;;;4912543;29;20028;-89
2022/02/23 09:40:16;;;;;;;16.95;7.85;;;;;;;;;;4900841;29;20095;-87
2022/02/23 09:42:43;;;;;;;19.88;9.02;;;;;;;;;;4901505;29;20033;-88
2022/02/23 09:45:09;;;;;;;19.63;7.60;;;;;;;;;;4902632;29;20075;-86
2022/02/23 09:47:35;;;;;;;16.02;7.15;;;;;;;;;;4908000;29;20059;-88
2022/02/23 09:50:08;;;;;;;22.27;8.57;;;;;;;;;;4911681;29;20035;-86
2022/02/23 09:52:34;;;;;;;15.88;7.35;;;;;;;;;;4907280;29;20020;-86
2022/02/23 09:55:01;;;;;;;16.30;7.47;;;;;;;;;;4910084;29;22212;-89
2022/02/23 09:57:28;;;;;;;18.67;7.72;;;;;;;;;;4910792;29;20456;-86
2022/02/23 09:59:54;;;;;;;17.50;8.00;;;;;;;;;;4917820;29;20464;-87
2022/02/23 10:02:21;;;;;;;18.80;7.80;;;;;;;;;;4910585;29;20047;-86
2022/02/23 10:04:48;;;;;;;18.98;7.43;;;;;;;;;;4913514;29;20064;-88
2022/02/23 10:07:15;;;;;;;17.00;7.43;;;;;;;;;;4920373;29;20078;-88
2022/02/23 10:09:47;;;;;;;21.90;7.28;;;;;;;;;;4919860;29;20110;-87
2022/02/23 10:12:17;;;;;;;16.63;6.43;;;;;;;;;;4914365;29;20404;-87
2022/02/23 10:14:43;;;;;;;17.00;7.20;;;;;;;;;;4906469;29;20104;-89
2022/02/23 10:17:09;;;;;;;15.18;6.50;;;;;;;;;;4919709;29;20038;-88
2022/02/23 10:19:36;;;;;;;13.00;6.05;;;;;;;;;;4906370;29;20028;-87
2022/02/23 10:22:03;;;;;;;17.52;5.97;;;;;;;;;;4904439;29;20039;-87
2022/02/23 10:24:32;;;;;;;13.73;5.70;;;;;;;;;;4902968;29;20029;-86
2022/02/23 10:27:12;;;;;;;21.17;6.05;;;;;;;;;;4912439;29;20035;-88
2022/02/23 10:29:46;;;;;;;15.27;5.78;;;;;;;;;;4899109;29;20115;-87
2022/02/23 10:32:14;;;;;;;14.82;5.57;;;;;;;;;;4924201;29;20035;-89
2022/02/23 10:34:47;;;;;;;11.43;4.72;;;;;;;;;;4914134;29;20031;-86
2022/02/23 10:37:21;;;;;;;13.57;5.00;;;;;;;;;;4922606;29;20122;-88
2022/02/23 10:39:52;;;;;;;12.63;4.35;;;;;;;;;;4927312;29;20491;-87
2022/02/23 10:42:24;;;;;;;14.35;5.03;;;;;;;;;;4914812;29;20087;-89
2022/02/23 10:45:00;;;;;;;14.50;4.30;;;;;;;;;;4919715;29;20051;-86
2022/02/23 10:47:42;;;;;;;11.73;3.92;;;;;;;;;;4914457;29;20027;-88
2022/02/23 10:50:14;;;;;;;14.75;3.63;;;;;;;;;;4908166;29;20039;-86
2022/02/23 10:52:51;;;;;;;11.35;4.13;;;;;;;;;;4912489;29;20627;-88
2022/02/23 10:55:20;;;;;;;13.48;3.40;;;;;;;;;;4905341;29;20032;-85
2022/02/23 10:58:00;;;;;;;18.13;4.45;;;;;;;;;;4906463;29;20124;-89
2022/02/23 11:00:31;;;;;;;14.75;4.18;;;;;;;;;;4915923;29;20058;-88
2022/02/23 11:02:58;;;;;;;10.60;3.28;;;;;;;;;;4910328;29;20918;-88
2022/02/23 11:05:25;;;;;;;11.02;3.00;;;;;;;;;;4910668;29;21363;-88
2022/02/23 11:07:52;;;;;;;16.65;4.53;;;;;;;;;;4907195;29;20401;-86
2022/02/23 11:10:18;;;;;;;13.52;3.42;;;;;;;;;;4909203;29;20455;-88
2022/02/23 11:12:46;;;;;;;11.85;3.42;;;;;;;;;;4900973;29;20032;-87
2022/02/23 11:15:19;;;;;;;11.68;3.55;;;;;;;;;;4902688;29;20092;-88
2022/02/23 11:17:46;;;;;;;14.57;3.63;;;;;;;;;;4927139;29;20090;-86
2022/02/23 11:20:18;;;;;;;12.60;3.53;;;;;;;;;;4915622;29;20035;-86
2022/02/23 11:22:49;;;;;;;12.65;2.88;;;;;;;;;;4913360;29;20028;-88
2022/02/23 11:25:19;;;;;;;13.48;3.00;;;;;;;;;;4918063;29;20402;-86
2022/02/23 11:27:49;;;;;;;11.63;2.72;;;;;;;;;;4913430;29;20024;-86
2022/02/23 11:30:17;;;;;;;13.50;2.70;;;;;;;;;;4912392;29;20032;-86
2022/02/23 11:32:43;;;;;;;10.90;2.30;;;;;;;;;;4914747;29;20092;-86
2022/02/23 11:35:11;;;;;;;9.25;2.38;;;;;;;;;;4908505;29;20020;-86
2022/02/23 11:37:38;;;;;;;11.02;2.50;;;;;;;;;;4922184;29;20431;-86
2022/02/23 11:40:06;;;;;;;9.80;2.03;;;;;;;;;;4908388;29;20368;-87
2022/02/23 11:42:36;;;;;;;27.75;3.33;;;;;;;;;;4904897;29;20533;-86
2022/02/23 11:45:09;;;;;;;11.15;2.38;;;;;;;;;;4927715;29;20392;-87
2022/02/23 11:47:34;;;;;;;12.98;2.33;;;;;;;;;;4909958;29;20028;-88
2022/02/23 11:50:10;;;;;;;8.48;1.95;;;;;;;;;;4914086;29;20489;-85
2022/02/23 11:52:44;;;;;;;10.07;2.00;;;;;;;;;;4923036;29;20534;-88
2022/02/23 11:55:25;;;;;;;8.35;2.00;;;;;;;;;;4913998;29;20022;-85
2022/02/23 11:57:59;;;;;;;10.65;2.00;;;;;;;;;;4914874;29;20429;-86
2022/02/23 12:00:30;;;;;;;7.55;1.70;;;;;;;;;;4905065;29;20778;-87
2022/02/23 12:03:03;;;;;;;8.45;2.03;;;;;;;;;;4910453;29;20035;-86
2022/02/23 12:05:36;;;;;;;13.60;2.28;;;;;;;;;;4917319;29;20023;-88
2022/02/23 12:08:01;;;;;;;9.40;1.90;;;;;;;;;;4908696;29;20047;-85
2022/02/23 12:10:29;;;;;;;8.75;1.75;;;;;;;;;;4917905;29;20029;-87
2022/02/23 12:12:55;;;;;;;7.57;1.90;;;;;;;;;;4921079;29;20477;-85
2022/02/23 12:15:39;;;;;;;6.85;1.90;;;;;;;;;;4929225;29;20032;-87
2022/02/23 12:18:17;;;;;;;9.15;2.08;;;;;;;;;;4908700;29;20036;-86
2022/02/23 12:20:43;;;;;;;10.80;2.45;;;;;;;;;;4899559;29;20088;-86
2022/02/23 12:23:29;;;;;;;10.60;2.20;;;;;;;;;;4929238;29;20433;-86
2022/02/23 12:25:57;;;;;;;9.45;1.70;;;;;;;;;;4914069;29;20401;-86
2022/02/23 12:28:26;;;;;;;9.13;2.05;;;;;;;;;;4914704;29;20519;-87
2022/02/23 12:30:59;;;;;;;13.95;3.00;;;;;;;;;;4907705;29;20040;-86
2022/02/23 12:33:24;;;;;;;9.40;2.22;;;;;;;;;;4914289;29;20029;-88
2022/02/23 12:35:50;;;;;;;9.82;2.10;;;;;;;;;;4905781;29;20507;-86
2022/02/23 12:38:24;;;;;;;10.23;2.08;;;;;;;;;;4905442;29;20046;-88
2022/02/23 12:40:51;;;;;;;9.75;2.33;;;;;;;;;;4924368;29;20032;-86
2022/02/23 12:43:17;;;;;;;10.50;2.38;;;;;;;;;;4919454;29;20432;-87
2022/02/23 12:45:50;;;;;;;8.18;2.00;;;;;;;;;;4912051;29;20131;-87
2022/02/23 12:48:16;;;;;;;6.97;1.60;;;;;;;;;;4906311;29;20032;-88
2022/02/23 12:50:42;;;;;;;10.95;1.95;;;;;;;;;;4921663;29;20035;-87
2022/02/23 12:53:08;;;;;;;7.88;2.10;;;;;;;;;;4905635;29;20548;-87
2022/02/23 12:55:34;;;;;;;8.73;2.40;;;;;;;;;;4905713;29;20119;-87
2022/02/23 12:58:00;;;;;;;11.73;2.13;;;;;;;;;;4904121;29;20075;-87
2022/02/23 13:00:33;;;;;;;9.10;2.20;;;;;;;;;;4905375;29;20060;-84
2022/02/23 13:03:05;;;;;;;;;;;;;;;;;;4909564;29;20032;-89
2022/02/23 13:05:30;;;;;;;10.98;2.72;;;;;;;;;;4901155;29;19916;-84
2022/02/23 13:07:56;;;;;;;11.27;1.73;;;;;;;;;;4908017;29;20552;-84
2022/02/23 13:10:21;;;;;;;9.85;1.65;;;;;;;;;;4909372;29;20020;-84
2022/02/23 13:12:52;;;;;;;11.88;2.85;;;;;;;;;;4910426;29;20080;-84
2022/02/23 13:15:17;;;;;;;10.18;1.42;;;;;;;;;;4922326;29;20116;-88
2022/02/23 13:17:42;;;;;;;8.43;1.77;;;;;;;;;;4907400;29;20451;-83
2022/02/23 13:20:10;;;;;;;6.47;1.58;;;;;;;;;;4903156;29;20032;-88
2022/02/23 13:22:37;;;;;;;6.32;1.40;;;;;;;;;;4905246;29;20043;-87
2022/02/23 13:25:02;;;;;;;10.18;1.80;;;;;;;;;;4904777;29;20485;-89
2022/02/23 13:27:30;;;;;;;7.95;1.50;;;;;;;;;;4910335;29;20093;-86
2022/02/23 13:29:59;;;;;;;8.18;1.48;;;;;;;;;;4902953;29;20052;-88
2022/02/23 13:32:30;;;;;;;5.60;1.17;;;;;;;;;;4908520;29;20059;-86
2022/02/23 13:34:59;;;;;;;7.82;1.38;;;;;;;;;;4910950;29;20062;-87
2022/02/23 13:37:29;;;;;;;7.45;1.30;;;;;;;;;;4903613;29;20036;-87
2022/02/23 13:40:15;;;;;;;9.02;1.58;;;;;;;;;;4913283;29;20071;-87
2022/02/23 13:42:43;;;;;;;7.28;1.40;;;;;;;;;;4898657;29;20083;-87
2022/02/23 13:45:16;;;;;;;9.80;1.75;;;;;;;;;;4900893;29;20040;-87
2022/02/23 13:47:55;;;;;;;10.50;2.38;;;;;;;;;;4908135;29;20032;-85
2022/02/23 13:50:22;;;;;;;8.43;1.98;;;;;;;;;;4895876;29;20055;-87
2022/02/23 13:52:57;;;;;;;7.10;1.30;;;;;;;;;;4912286;29;20476;-86
2022/02/23 13:55:28;;;;;;;12.18;2.08;;;;;;;;;;4899230;29;20040;-87
2022/02/23 13:58:19;;;;;;;7.18;1.38;;;;;;;;;;4906296;29;20059;-85
2022/02/23 14:00:52;;;;;;;9.95;1.80;;;;;;;;;;4893162;29;20440;-87
2022/02/23 14:03:39;;;;;;;4.88;1.20;;;;;;;;;;4900070;29;20043;-89
2022/02/23 14:06:16;;;;;;;6.03;1.42;;;;;;;;;;4901334;29;20036;-88
2022/02/23 14:08:44;;;;;;;5.10;1.30;;;;;;;;;;4899029;29;20040;-88
2022/02/23 14:11:22;;;;;;;7.68;1.65;;;;;;;;;;4911736;29;20042;-85
2022/02/23 14:13:54;;;;;;;5.13;1.10;;;;;;;;;;4912552;29;20036;-85
2022/02/23 14:16:40;;;;;;;9.37;1.70;;;;;;;;;;4910739;29;20183;-85
2022/02/23 14:19:19;;;;;;;6.75;1.45;;;;;;;;;;4901301;29;20036;-88
2022/02/23 14:21:47;;;;;;;5.32;1.15;;;;;;;;;;4896119;29;20413;-87
2022/02/23 14:24:19;;;;;;;8.50;1.48;;;;;;;;;;4916735;29;20028;-89
2022/02/23 14:26:56;;;;;;;3.92;1.23;;;;;;;;;;4906331;29;20031;-88
2022/02/23 14:29:28;;;;;;;5.05;1.05;;;;;;;;;;4911368;29;20036;-90
2022/02/23 14:31:57;;;;;;;5.90;1.52;;;;;;;;;;4900495;29;20039;-86
2022/02/23 14:34:24;;;;;;;7.00;1.20;;;;;;;;;;4903074;29;20071;-86
2022/02/23 14:36:53;;;;;;;4.97;1.20;;;;;;;;;;4904366;29;20040;-85
2022/02/23 14:39:21;;;;;;;5.82;1.33;;;;;;;;;;4905377;29;20143;-87
2022/02/23 14:41:47;;;;;;;4.15;1.20;;;;;;;;;;4895058;29;20495;-84